sensor_id;sensor_type;location;lat;lon;timestamp;temperature;humidity
42095;DHT22;27753;55.724;37.612;2023-07-16T00:01:23;16.20;99.90
42095;DHT22;27753;55.724;37.612;2023-07-16T00:03:50;16.10;99.90
42095;DHT22;27753;55.724;37.612;2023-07-16T00:06:16;16.10;99.90
42095;DHT22;27753;55.724;37.612;2023-07-16T00:08:41;16.10;99.90
42095;DHT22;27753;55.724;37.612;2023-07-16T00:11:07;16.10;99.90
42095;DHT22;27753;55.724;37.612;2023-07-16T00:13:33;16.00;99.90
42095;DHT22;27753;55.724;37.612;2023-07-16T00:15:58;16.00;99.90
42095;DHT22;27753;55.724;37.612;2023-07-16T00:18:24;16.00;99.90
42095;DHT22;27753;55.724;37.612;2023-07-16T00:20:50;16.00;99.90
42095;DHT22;27753;55.724;37.612;2023-07-16T00:23:15;16.00;99.90
42095;DHT22;27753;55.724;37.612;2023-07-16T00:25:41;16.00;99.90
42095;DHT22;27753;55.724;37.612;2023-07-16T00:28:07;16.00;99.90
42095;DHT22;27753;55.724;37.612;2023-07-16T00:30:32;16.00;99.90
42095;DHT22;27753;55.724;37.612;2023-07-16T00:32:58;16.00;99.90
42095;DHT22;27753;55.724;37.612;2023-07-16T00:35:23;16.00;99.90
42095;DHT22;27753;55.724;37.612;2023-07-16T00:37:49;16.00;99.90
42095;DHT22;27753;55.724;37.612;2023-07-16T00:40:15;16.00;99.90
42095;DHT22;27753;55.724;37.612;2023-07-16T00:42:40;16.00;99.90
42095;DHT22;27753;55.724;37.612;2023-07-16T00:45:08;16.00;99.90
42095;DHT22;27753;55.724;37.612;2023-07-16T00:47:34;16.00;99.90
42095;DHT22;27753;55.724;37.612;2023-07-16T00:50:00;16.00;99.90
42095;DHT22;27753;55.724;37.612;2023-07-16T00:52:26;16.10;99.90
42095;DHT22;27753;55.724;37.612;2023-07-16T00:54:53;16.00;99.90
42095;DHT22;27753;55.724;37.612;2023-07-16T00:57:19;16.00;99.90
42095;DHT22;27753;55.724;37.612;2023-07-16T00:59:45;16.10;99.90
42095;DHT22;27753;55.724;37.612;2023-07-16T01:02:10;16.10;99.90
42095;DHT22;27753;55.724;37.612;2023-07-16T01:04:36;16.20;99.90
42095;DHT22;27753;55.724;37.612;2023-07-16T01:07:03;16.20;99.90
42095;DHT22;27753;55.724;37.612;2023-07-16T01:09:30;16.20;99.90
42095;DHT22;27753;55.724;37.612;2023-07-16T01:11:56;16.20;99.90
42095;DHT22;27753;55.724;37.612;2023-07-16T01:14:23;16.20;99.90
42095;DHT22;27753;55.724;37.612;2023-07-16T01:16:49;16.30;99.90
42095;DHT22;27753;55.724;37.612;2023-07-16T01:19:16;16.30;99.90
42095;DHT22;27753;55.724;37.612;2023-07-16T01:29:18;16.40;99.90
42095;DHT22;27753;55.724;37.612;2023-07-16T01:31:46;16.30;99.90
42095;DHT22;27753;55.724;37.612;2023-07-16T01:34:15;16.40;99.90
42095;DHT22;27753;55.724;37.612;2023-07-16T01:36:41;16.40;99.90
42095;DHT22;27753;55.724;37.612;2023-07-16T01:39:07;16.40;99.90
42095;DHT22;27753;55.724;37.612;2023-07-16T01:41:33;16.40;99.90
42095;DHT22;27753;55.724;37.612;2023-07-16T01:43:59;16.50;99.90
42095;DHT22;27753;55.724;37.612;2023-07-16T01:46:25;16.50;99.90
42095;DHT22;27753;55.724;37.612;2023-07-16T01:48:50;16.50;99.90
42095;DHT22;27753;55.724;37.612;2023-07-16T01:51:16;16.60;99.90
42095;DHT22;27753;55.724;37.612;2023-07-16T01:53:42;16.50;99.90
42095;DHT22;27753;55.724;37.612;2023-07-16T01:56:07;16.60;99.90
42095;DHT22;27753;55.724;37.612;2023-07-16T01:58:33;16.60;99.90
42095;DHT22;27753;55.724;37.612;2023-07-16T02:00:59;16.70;99.90
42095;DHT22;27753;55.724;37.612;2023-07-16T02:03:25;16.70;99.90
42095;DHT22;27753;55.724;37.612;2023-07-16T02:05:50;16.60;99.90
42095;DHT22;27753;55.724;37.612;2023-07-16T02:08:17;16.70;99.90
42095;DHT22;27753;55.724;37.612;2023-07-16T02:10:43;16.70;99.90
42095;DHT22;27753;55.724;37.612;2023-07-16T02:13:09;16.80;99.90
42095;DHT22;27753;55.724;37.612;2023-07-16T02:15:35;16.70;99.90
42095;DHT22;27753;55.724;37.612;2023-07-16T02:18:00;16.70;99.90
42095;DHT22;27753;55.724;37.612;2023-07-16T02:20:26;16.70;99.90
42095;DHT22;27753;55.724;37.612;2023-07-16T02:22:52;16.70;99.90
42095;DHT22;27753;55.724;37.612;2023-07-16T02:25:17;16.70;99.90
42095;DHT22;27753;55.724;37.612;2023-07-16T02:27:43;16.80;99.90
42095;DHT22;27753;55.724;37.612;2023-07-16T02:30:09;16.70;99.90
42095;DHT22;27753;55.724;37.612;2023-07-16T02:32:35;16.80;99.90
42095;DHT22;27753;55.724;37.612;2023-07-16T02:35:01;16.80;99.90
42095;DHT22;27753;55.724;37.612;2023-07-16T02:37:27;16.80;99.90
42095;DHT22;27753;55.724;37.612;2023-07-16T02:39:53;16.80;99.90
42095;DHT22;27753;55.724;37.612;2023-07-16T02:42:18;16.90;99.90
42095;DHT22;27753;55.724;37.612;2023-07-16T02:44:44;16.80;99.90
42095;DHT22;27753;55.724;37.612;2023-07-16T02:47:12;16.90;99.90
42095;DHT22;27753;55.724;37.612;2023-07-16T02:49:38;16.80;99.90
42095;DHT22;27753;55.724;37.612;2023-07-16T02:52:04;16.90;99.90
42095;DHT22;27753;55.724;37.612;2023-07-16T02:54:30;16.90;99.90
42095;DHT22;27753;55.724;37.612;2023-07-16T02:56:56;17.00;99.90
42095;DHT22;27753;55.724;37.612;2023-07-16T02:59:22;17.00;99.90
42095;DHT22;27753;55.724;37.612;2023-07-16T03:01:48;17.10;99.90
42095;DHT22;27753;55.724;37.612;2023-07-16T03:04:13;17.10;99.90
42095;DHT22;27753;55.724;37.612;2023-07-16T03:06:39;17.20;99.90
42095;DHT22;27753;55.724;37.612;2023-07-16T03:09:04;17.20;99.90
42095;DHT22;27753;55.724;37.612;2023-07-16T03:11:30;17.30;99.90
42095;DHT22;27753;55.724;37.612;2023-07-16T03:13:56;17.30;99.90
42095;DHT22;27753;55.724;37.612;2023-07-16T03:16:21;17.30;99.90
42095;DHT22;27753;55.724;37.612;2023-07-16T03:18:47;17.30;99.90
42095;DHT22;27753;55.724;37.612;2023-07-16T03:21:13;17.30;99.90
42095;DHT22;27753;55.724;37.612;2023-07-16T03:23:39;17.40;99.90
42095;DHT22;27753;55.724;37.612;2023-07-16T03:26:04;17.40;99.90
42095;DHT22;27753;55.724;37.612;2023-07-16T03:28:30;17.40;99.90
42095;DHT22;27753;55.724;37.612;2023-07-16T03:30:56;17.50;99.90
42095;DHT22;27753;55.724;37.612;2023-07-16T03:33:21;17.50;99.90
42095;DHT22;27753;55.724;37.612;2023-07-16T03:35:48;17.50;99.90
42095;DHT22;27753;55.724;37.612;2023-07-16T03:38:14;17.50;99.90
42095;DHT22;27753;55.724;37.612;2023-07-16T03:40:42;17.50;99.90
42095;DHT22;27753;55.724;37.612;2023-07-16T03:43:08;17.50;99.90
42095;DHT22;27753;55.724;37.612;2023-07-16T03:45:34;17.50;99.90
42095;DHT22;27753;55.724;37.612;2023-07-16T03:47:59;17.60;99.90
42095;DHT22;27753;55.724;37.612;2023-07-16T03:50:25;17.50;99.90
42095;DHT22;27753;55.724;37.612;2023-07-16T03:52:50;17.60;99.90
42095;DHT22;27753;55.724;37.612;2023-07-16T03:55:16;17.70;99.90
42095;DHT22;27753;55.724;37.612;2023-07-16T03:57:42;17.70;99.90
42095;DHT22;27753;55.724;37.612;2023-07-16T04:00:08;17.70;99.90
42095;DHT22;27753;55.724;37.612;2023-07-16T04:02:35;17.70;99.90
42095;DHT22;27753;55.724;37.612;2023-07-16T04:05:01;17.80;99.90
42095;DHT22;27753;55.724;37.612;2023-07-16T04:07:27;17.80;99.90
42095;DHT22;27753;55.724;37.612;2023-07-16T04:09:52;17.80;99.90
42095;DHT22;27753;55.724;37.612;2023-07-16T04:12:18;17.90;99.90
42095;DHT22;27753;55.724;37.612;2023-07-16T04:14:44;17.90;99.90
42095;DHT22;27753;55.724;37.612;2023-07-16T04:17:09;18.00;99.90
42095;DHT22;27753;55.724;37.612;2023-07-16T04:19:35;18.10;99.90
42095;DHT22;27753;55.724;37.612;2023-07-16T04:22:01;18.10;99.90
42095;DHT22;27753;55.724;37.612;2023-07-16T04:24:27;18.10;99.90
42095;DHT22;27753;55.724;37.612;2023-07-16T04:26:53;18.10;99.90
42095;DHT22;27753;55.724;37.612;2023-07-16T04:29:19;18.00;99.90
42095;DHT22;27753;55.724;37.612;2023-07-16T04:31:45;18.00;99.90
42095;DHT22;27753;55.724;37.612;2023-07-16T04:34:10;18.00;99.90
42095;DHT22;27753;55.724;37.612;2023-07-16T04:36:36;18.00;99.90
42095;DHT22;27753;55.724;37.612;2023-07-16T04:39:02;18.00;99.90
42095;DHT22;27753;55.724;37.612;2023-07-16T04:41:27;18.10;99.90
42095;DHT22;27753;55.724;37.612;2023-07-16T04:43:53;18.10;99.90
42095;DHT22;27753;55.724;37.612;2023-07-16T04:46:19;18.20;99.90
42095;DHT22;27753;55.724;37.612;2023-07-16T04:48:44;18.30;99.90
42095;DHT22;27753;55.724;37.612;2023-07-16T04:51:10;18.40;99.90
42095;DHT22;27753;55.724;37.612;2023-07-16T04:53:36;18.50;99.90
42095;DHT22;27753;55.724;37.612;2023-07-16T04:56:02;18.60;99.90
42095;DHT22;27753;55.724;37.612;2023-07-16T04:58:35;18.60;99.90
42095;DHT22;27753;55.724;37.612;2023-07-16T05:01:01;18.60;99.80
42095;DHT22;27753;55.724;37.612;2023-07-16T05:03:26;18.50;99.70
42095;DHT22;27753;55.724;37.612;2023-07-16T05:05:52;18.50;99.70
42095;DHT22;27753;55.724;37.612;2023-07-16T05:08:18;18.50;99.60
42095;DHT22;27753;55.724;37.612;2023-07-16T05:10:44;18.50;99.60
42095;DHT22;27753;55.724;37.612;2023-07-16T05:13:09;18.50;99.50
42095;DHT22;27753;55.724;37.612;2023-07-16T05:15:35;18.50;99.40
42095;DHT22;27753;55.724;37.612;2023-07-16T05:18:02;18.50;99.50
42095;DHT22;27753;55.724;37.612;2023-07-16T05:20:28;18.60;99.60
42095;DHT22;27753;55.724;37.612;2023-07-16T05:22:54;18.80;99.60
42095;DHT22;27753;55.724;37.612;2023-07-16T05:25:19;18.90;99.30
42095;DHT22;27753;55.724;37.612;2023-07-16T05:27:45;18.90;99.10
42095;DHT22;27753;55.724;37.612;2023-07-16T05:30:11;19.10;99.10
42095;DHT22;27753;55.724;37.612;2023-07-16T05:32:37;19.10;98.90
42095;DHT22;27753;55.724;37.612;2023-07-16T05:35:02;19.30;98.90
42095;DHT22;27753;55.724;37.612;2023-07-16T05:37:28;19.30;98.70
42095;DHT22;27753;55.724;37.612;2023-07-16T05:39:54;19.40;98.50
42095;DHT22;27753;55.724;37.612;2023-07-16T05:42:20;19.30;98.20
42095;DHT22;27753;55.724;37.612;2023-07-16T05:44:47;19.30;98.20
42095;DHT22;27753;55.724;37.612;2023-07-16T05:47:13;19.40;98.20
42095;DHT22;27753;55.724;37.612;2023-07-16T05:49:38;19.40;98.00
42095;DHT22;27753;55.724;37.612;2023-07-16T05:52:04;19.40;98.10
42095;DHT22;27753;55.724;37.612;2023-07-16T05:54:33;19.50;97.90
42095;DHT22;27753;55.724;37.612;2023-07-16T05:56:58;19.70;97.90
42095;DHT22;27753;55.724;37.612;2023-07-16T05:59:25;19.90;97.70
42095;DHT22;27753;55.724;37.612;2023-07-16T06:01:51;20.10;97.40
42095;DHT22;27753;55.724;37.612;2023-07-16T06:04:20;20.20;97.10
42095;DHT22;27753;55.724;37.612;2023-07-16T06:06:46;20.40;96.90
42095;DHT22;27753;55.724;37.612;2023-07-16T06:09:13;20.50;96.50
42095;DHT22;27753;55.724;37.612;2023-07-16T06:11:38;20.60;96.20
42095;DHT22;27753;55.724;37.612;2023-07-16T06:14:04;20.90;96.00
42095;DHT22;27753;55.724;37.612;2023-07-16T06:16:30;21.30;95.50
42095;DHT22;27753;55.724;37.612;2023-07-16T06:18:56;21.70;94.70
42095;DHT22;27753;55.724;37.612;2023-07-16T06:21:21;22.20;94.60
42095;DHT22;27753;55.724;37.612;2023-07-16T06:23:47;22.80;93.70
42095;DHT22;27753;55.724;37.612;2023-07-16T06:26:13;23.30;92.80
42095;DHT22;27753;55.724;37.612;2023-07-16T06:28:38;23.60;91.00
42095;DHT22;27753;55.724;37.612;2023-07-16T06:31:04;23.20;90.60
42095;DHT22;27753;55.724;37.612;2023-07-16T06:33:30;23.50;91.00
42095;DHT22;27753;55.724;37.612;2023-07-16T06:35:56;23.50;90.40
42095;DHT22;27753;55.724;37.612;2023-07-16T06:38:21;23.40;90.00
42095;DHT22;27753;55.724;37.612;2023-07-16T06:40:48;23.00;89.30
42095;DHT22;27753;55.724;37.612;2023-07-16T06:43:14;22.40;90.20
42095;DHT22;27753;55.724;37.612;2023-07-16T06:45:40;22.10;91.00
42095;DHT22;27753;55.724;37.612;2023-07-16T06:48:05;22.30;91.70
42095;DHT22;27753;55.724;37.612;2023-07-16T06:50:31;23.30;91.50
42095;DHT22;27753;55.724;37.612;2023-07-16T06:52:57;23.80;90.00
42095;DHT22;27753;55.724;37.612;2023-07-16T06:55:23;23.60;88.40
42095;DHT22;27753;55.724;37.612;2023-07-16T06:57:48;24.00;88.10
42095;DHT22;27753;55.724;37.612;2023-07-16T07:00:14;23.90;86.70
42095;DHT22;27753;55.724;37.612;2023-07-16T07:02:40;23.70;86.20
42095;DHT22;27753;55.724;37.612;2023-07-16T07:05:06;23.30;86.50
42095;DHT22;27753;55.724;37.612;2023-07-16T07:07:32;22.60;87.30
42095;DHT22;27753;55.724;37.612;2023-07-16T07:09:58;22.00;89.10
42095;DHT22;27753;55.724;37.612;2023-07-16T07:12:23;21.70;90.30
42095;DHT22;27753;55.724;37.612;2023-07-16T07:14:49;21.50;90.60
42095;DHT22;27753;55.724;37.612;2023-07-16T07:17:15;21.20;91.30
42095;DHT22;27753;55.724;37.612;2023-07-16T07:19:41;20.90;92.10
42095;DHT22;27753;55.724;37.612;2023-07-16T07:22:07;20.60;92.40
42095;DHT22;27753;55.724;37.612;2023-07-16T07:24:33;20.30;92.90
42095;DHT22;27753;55.724;37.612;2023-07-16T07:26:59;20.20;93.30
42095;DHT22;27753;55.724;37.612;2023-07-16T07:29:24;20.10;93.50
42095;DHT22;27753;55.724;37.612;2023-07-16T07:31:51;20.10;93.70
42095;DHT22;27753;55.724;37.612;2023-07-16T07:34:17;20.10;93.80
42095;DHT22;27753;55.724;37.612;2023-07-16T07:36:43;20.30;94.00
42095;DHT22;27753;55.724;37.612;2023-07-16T07:39:09;20.50;93.70
42095;DHT22;27753;55.724;37.612;2023-07-16T07:41:35;20.90;93.50
42095;DHT22;27753;55.724;37.612;2023-07-16T07:44:01;21.40;92.90
42095;DHT22;27753;55.724;37.612;2023-07-16T07:46:26;21.70;92.20
42095;DHT22;27753;55.724;37.612;2023-07-16T07:48:52;22.10;91.80
42095;DHT22;27753;55.724;37.612;2023-07-16T07:51:19;22.50;91.40
42095;DHT22;27753;55.724;37.612;2023-07-16T07:53:45;22.50;89.60
42095;DHT22;27753;55.724;37.612;2023-07-16T07:56:11;22.50;90.20
42095;DHT22;27753;55.724;37.612;2023-07-16T07:58:40;22.50;90.30
42095;DHT22;27753;55.724;37.612;2023-07-16T08:01:06;22.50;90.00
42095;DHT22;27753;55.724;37.612;2023-07-16T08:03:32;22.60;89.00
42095;DHT22;27753;55.724;37.612;2023-07-16T08:05:59;22.60;88.20
42095;DHT22;27753;55.724;37.612;2023-07-16T08:08:24;22.70;87.40
42095;DHT22;27753;55.724;37.612;2023-07-16T08:10:56;22.80;87.30
42095;DHT22;27753;55.724;37.612;2023-07-16T08:13:24;23.10;87.50
42095;DHT22;27753;55.724;37.612;2023-07-16T08:15:50;23.70;86.10
42095;DHT22;27753;55.724;37.612;2023-07-16T08:18:16;23.80;83.90
42095;DHT22;27753;55.724;37.612;2023-07-16T08:20:42;23.70;82.60
42095;DHT22;27753;55.724;37.612;2023-07-16T08:23:07;23.60;83.30
42095;DHT22;27753;55.724;37.612;2023-07-16T08:25:33;23.60;83.30
42095;DHT22;27753;55.724;37.612;2023-07-16T08:28:01;23.70;83.50
42095;DHT22;27753;55.724;37.612;2023-07-16T08:30:27;24.00;83.80
42095;DHT22;27753;55.724;37.612;2023-07-16T08:32:52;24.20;82.20
42095;DHT22;27753;55.724;37.612;2023-07-16T08:35:18;24.10;81.80
42095;DHT22;27753;55.724;37.612;2023-07-16T08:37:45;24.00;81.80
42095;DHT22;27753;55.724;37.612;2023-07-16T08:40:11;23.90;82.10
42095;DHT22;27753;55.724;37.612;2023-07-16T08:42:37;24.10;81.70
42095;DHT22;27753;55.724;37.612;2023-07-16T08:45:06;24.80;81.80
42095;DHT22;27753;55.724;37.612;2023-07-16T08:47:33;26.50;79.50
42095;DHT22;27753;55.724;37.612;2023-07-16T08:49:59;26.80;74.40
42095;DHT22;27753;55.724;37.612;2023-07-16T08:52:30;27.80;73.50
42095;DHT22;27753;55.724;37.612;2023-07-16T08:54:56;28.00;72.70
42095;DHT22;27753;55.724;37.612;2023-07-16T08:57:22;28.50;68.50
42095;DHT22;27753;55.724;37.612;2023-07-16T08:59:48;28.10;68.30
42095;DHT22;27753;55.724;37.612;2023-07-16T09:02:18;29.10;69.10
42095;DHT22;27753;55.724;37.612;2023-07-16T09:04:45;30.80;65.60
42095;DHT22;27753;55.724;37.612;2023-07-16T09:07:12;32.60;63.50
42095;DHT22;27753;55.724;37.612;2023-07-16T09:09:37;35.10;54.60
42095;DHT22;27753;55.724;37.612;2023-07-16T09:12:03;35.60;55.20
42095;DHT22;27753;55.724;37.612;2023-07-16T09:14:29;36.00;54.40
42095;DHT22;27753;55.724;37.612;2023-07-16T09:16:55;35.80;50.80
42095;DHT22;27753;55.724;37.612;2023-07-16T09:19:20;35.10;47.00
42095;DHT22;27753;55.724;37.612;2023-07-16T09:21:49;34.50;50.20
42095;DHT22;27753;55.724;37.612;2023-07-16T09:24:16;34.80;48.90
42095;DHT22;27753;55.724;37.612;2023-07-16T09:26:48;34.70;49.40
42095;DHT22;27753;55.724;37.612;2023-07-16T09:29:15;34.80;48.90
42095;DHT22;27753;55.724;37.612;2023-07-16T09:31:57;34.40;47.60
42095;DHT22;27753;55.724;37.612;2023-07-16T09:34:23;34.10;48.70
42095;DHT22;27753;55.724;37.612;2023-07-16T09:36:49;34.50;48.90
42095;DHT22;27753;55.724;37.612;2023-07-16T09:39:18;34.50;47.90
42095;DHT22;27753;55.724;37.612;2023-07-16T09:41:48;33.80;48.00
42095;DHT22;27753;55.724;37.612;2023-07-16T09:44:14;33.50;48.20
42095;DHT22;27753;55.724;37.612;2023-07-16T09:46:40;33.00;48.00
42095;DHT22;27753;55.724;37.612;2023-07-16T09:49:06;32.40;49.60
42095;DHT22;27753;55.724;37.612;2023-07-16T09:51:32;32.30;49.30
42095;DHT22;27753;55.724;37.612;2023-07-16T09:54:02;31.10;50.80
42095;DHT22;27753;55.724;37.612;2023-07-16T09:56:31;31.00;53.20
42095;DHT22;27753;55.724;37.612;2023-07-16T09:58:57;32.10;52.50
42095;DHT22;27753;55.724;37.612;2023-07-16T10:01:24;32.40;50.90
42095;DHT22;27753;55.724;37.612;2023-07-16T10:03:50;31.40;49.10
42095;DHT22;27753;55.724;37.612;2023-07-16T10:06:19;29.90;51.30
42095;DHT22;27753;55.724;37.612;2023-07-16T10:08:53;29.60;53.70
42095;DHT22;27753;55.724;37.612;2023-07-16T10:11:19;30.50;54.00
42095;DHT22;27753;55.724;37.612;2023-07-16T10:13:48;31.20;52.40
42095;DHT22;27753;55.724;37.612;2023-07-16T10:16:22;31.30;50.60
42095;DHT22;27753;55.724;37.612;2023-07-16T10:18:52;30.30;50.40
42095;DHT22;27753;55.724;37.612;2023-07-16T10:21:24;30.70;51.60
42095;DHT22;27753;55.724;37.612;2023-07-16T10:23:57;31.20;49.80
42095;DHT22;27753;55.724;37.612;2023-07-16T10:26:27;30.10;51.00
42095;DHT22;27753;55.724;37.612;2023-07-16T10:31:24;29.30;52.40
42095;DHT22;27753;55.724;37.612;2023-07-16T10:33:58;27.50;54.20
42095;DHT22;27753;55.724;37.612;2023-07-16T10:36:24;27.00;55.60
42095;DHT22;27753;55.724;37.612;2023-07-16T10:38:49;26.60;56.10
42095;DHT22;27753;55.724;37.612;2023-07-16T10:41:15;26.30;56.70
42095;DHT22;27753;55.724;37.612;2023-07-16T10:43:41;26.10;57.70
42095;DHT22;27753;55.724;37.612;2023-07-16T10:46:08;25.80;57.90
42095;DHT22;27753;55.724;37.612;2023-07-16T10:48:33;25.50;59.10
42095;DHT22;27753;55.724;37.612;2023-07-16T10:53:25;25.20;60.10
42095;DHT22;27753;55.724;37.612;2023-07-16T10:55:51;24.90;60.80
42095;DHT22;27753;55.724;37.612;2023-07-16T10:58:17;24.80;61.70
42095;DHT22;27753;55.724;37.612;2023-07-16T11:00:42;24.60;61.90
42095;DHT22;27753;55.724;37.612;2023-07-16T11:03:10;24.50;62.00
42095;DHT22;27753;55.724;37.612;2023-07-16T11:05:35;24.40;61.70
42095;DHT22;27753;55.724;37.612;2023-07-16T11:08:01;24.50;61.60
42095;DHT22;27753;55.724;37.612;2023-07-16T11:10:30;24.80;61.90
42095;DHT22;27753;55.724;37.612;2023-07-16T11:12:56;25.20;61.60
42095;DHT22;27753;55.724;37.612;2023-07-16T11:15:34;25.20;61.50
42095;DHT22;27753;55.724;37.612;2023-07-16T11:18:02;25.20;61.40
42095;DHT22;27753;55.724;37.612;2023-07-16T11:20:28;25.20;61.40
42095;DHT22;27753;55.724;37.612;2023-07-16T11:22:57;25.20;61.60
42095;DHT22;27753;55.724;37.612;2023-07-16T11:25:23;25.10;62.00
42095;DHT22;27753;55.724;37.612;2023-07-16T11:27:49;25.20;62.30
42095;DHT22;27753;55.724;37.612;2023-07-16T11:30:22;25.20;61.90
42095;DHT22;27753;55.724;37.612;2023-07-16T11:32:48;25.10;61.60
42095;DHT22;27753;55.724;37.612;2023-07-16T11:35:17;25.00;60.70
42095;DHT22;27753;55.724;37.612;2023-07-16T11:37:43;24.80;61.00
42095;DHT22;27753;55.724;37.612;2023-07-16T11:40:11;24.60;61.60
42095;DHT22;27753;55.724;37.612;2023-07-16T11:42:40;24.40;62.50
42095;DHT22;27753;55.724;37.612;2023-07-16T11:45:17;24.40;64.40
42095;DHT22;27753;55.724;37.612;2023-07-16T11:47:43;24.30;63.50
42095;DHT22;27753;55.724;37.612;2023-07-16T11:50:09;24.40;63.60
42095;DHT22;27753;55.724;37.612;2023-07-16T11:52:35;24.60;62.90
42095;DHT22;27753;55.724;37.612;2023-07-16T11:55:00;24.60;60.80
42095;DHT22;27753;55.724;37.612;2023-07-16T11:57:27;24.60;60.00
42095;DHT22;27753;55.724;37.612;2023-07-16T11:59:53;24.50;60.00
42095;DHT22;27753;55.724;37.612;2023-07-16T12:02:20;24.50;59.70
42095;DHT22;27753;55.724;37.612;2023-07-16T12:04:50;24.40;59.70
42095;DHT22;27753;55.724;37.612;2023-07-16T12:07:29;24.30;60.40
42095;DHT22;27753;55.724;37.612;2023-07-16T12:10:04;24.20;61.00
42095;DHT22;27753;55.724;37.612;2023-07-16T12:12:31;24.10;61.70
42095;DHT22;27753;55.724;37.612;2023-07-16T12:14:57;24.20;62.10
42095;DHT22;27753;55.724;37.612;2023-07-16T12:17:23;24.30;61.70
42095;DHT22;27753;55.724;37.612;2023-07-16T12:19:49;24.30;60.80
42095;DHT22;27753;55.724;37.612;2023-07-16T12:22:16;24.20;60.20
42095;DHT22;27753;55.724;37.612;2023-07-16T12:24:48;24.10;60.60
42095;DHT22;27753;55.724;37.612;2023-07-16T12:27:18;24.00;61.10
42095;DHT22;27753;55.724;37.612;2023-07-16T12:29:48;23.90;61.70
42095;DHT22;27753;55.724;37.612;2023-07-16T12:32:13;24.00;62.30
42095;DHT22;27753;55.724;37.612;2023-07-16T12:34:40;24.00;62.80
42095;DHT22;27753;55.724;37.612;2023-07-16T12:37:16;24.00;62.70
42095;DHT22;27753;55.724;37.612;2023-07-16T12:39:45;24.00;62.30
42095;DHT22;27753;55.724;37.612;2023-07-16T12:42:15;24.10;62.40
42095;DHT22;27753;55.724;37.612;2023-07-16T12:44:46;24.20;62.30
42095;DHT22;27753;55.724;37.612;2023-07-16T12:47:15;24.30;61.90
42095;DHT22;27753;55.724;37.612;2023-07-16T12:49:43;24.40;62.20
42095;DHT22;27753;55.724;37.612;2023-07-16T12:52:11;24.50;62.40
42095;DHT22;27753;55.724;37.612;2023-07-16T12:54:55;24.70;61.90
42095;DHT22;27753;55.724;37.612;2023-07-16T12:57:37;24.80;61.30
42095;DHT22;27753;55.724;37.612;2023-07-16T13:00:06;24.90;61.60
42095;DHT22;27753;55.724;37.612;2023-07-16T13:02:34;25.00;61.60
42095;DHT22;27753;55.724;37.612;2023-07-16T13:05:02;25.00;61.60
42095;DHT22;27753;55.724;37.612;2023-07-16T13:07:31;25.00;61.50
42095;DHT22;27753;55.724;37.612;2023-07-16T13:10:00;25.00;61.40
42095;DHT22;27753;55.724;37.612;2023-07-16T13:12:28;24.90;61.50
42095;DHT22;27753;55.724;37.612;2023-07-16T13:14:53;24.70;61.50
42095;DHT22;27753;55.724;37.612;2023-07-16T13:17:19;24.60;61.80
42095;DHT22;27753;55.724;37.612;2023-07-16T13:19:45;24.60;62.40
42095;DHT22;27753;55.724;37.612;2023-07-16T13:22:12;24.50;61.30
42095;DHT22;27753;55.724;37.612;2023-07-16T13:24:38;24.40;60.30
42095;DHT22;27753;55.724;37.612;2023-07-16T13:27:03;24.50;60.30
42095;DHT22;27753;55.724;37.612;2023-07-16T13:29:29;24.40;60.60
42095;DHT22;27753;55.724;37.612;2023-07-16T13:31:55;24.50;61.00
42095;DHT22;27753;55.724;37.612;2023-07-16T13:34:21;24.70;60.80
42095;DHT22;27753;55.724;37.612;2023-07-16T13:36:46;24.80;60.70
42095;DHT22;27753;55.724;37.612;2023-07-16T13:39:12;24.90;59.90
42095;DHT22;27753;55.724;37.612;2023-07-16T13:41:39;24.80;59.60
42095;DHT22;27753;55.724;37.612;2023-07-16T13:44:04;25.00;59.50
42095;DHT22;27753;55.724;37.612;2023-07-16T13:46:30;25.00;59.30
42095;DHT22;27753;55.724;37.612;2023-07-16T13:48:56;24.90;59.50
42095;DHT22;27753;55.724;37.612;2023-07-16T13:51:22;24.70;60.00
42095;DHT22;27753;55.724;37.612;2023-07-16T13:53:48;24.60;60.60
42095;DHT22;27753;55.724;37.612;2023-07-16T13:56:14;24.40;61.30
42095;DHT22;27753;55.724;37.612;2023-07-16T13:58:39;24.30;62.20
42095;DHT22;27753;55.724;37.612;2023-07-16T14:01:08;24.20;62.60
42095;DHT22;27753;55.724;37.612;2023-07-16T14:03:34;24.20;62.80
42095;DHT22;27753;55.724;37.612;2023-07-16T14:06:00;24.40;62.70
42095;DHT22;27753;55.724;37.612;2023-07-16T14:08:25;24.30;62.10
42095;DHT22;27753;55.724;37.612;2023-07-16T14:10:53;24.30;61.50
42095;DHT22;27753;55.724;37.612;2023-07-16T14:13:20;24.40;61.50
42095;DHT22;27753;55.724;37.612;2023-07-16T14:15:46;24.30;61.50
42095;DHT22;27753;55.724;37.612;2023-07-16T14:18:12;24.10;61.40
42095;DHT22;27753;55.724;37.612;2023-07-16T14:20:38;23.90;61.80
42095;DHT22;27753;55.724;37.612;2023-07-16T14:23:04;23.80;62.40
42095;DHT22;27753;55.724;37.612;2023-07-16T14:25:30;23.80;62.70
42095;DHT22;27753;55.724;37.612;2023-07-16T14:27:56;23.80;63.20
42095;DHT22;27753;55.724;37.612;2023-07-16T14:30:21;23.80;63.80
42095;DHT22;27753;55.724;37.612;2023-07-16T14:32:47;23.70;64.40
42095;DHT22;27753;55.724;37.612;2023-07-16T14:35:13;23.70;65.20
42095;DHT22;27753;55.724;37.612;2023-07-16T14:37:38;23.50;65.30
42095;DHT22;27753;55.724;37.612;2023-07-16T14:40:04;23.40;65.40
42095;DHT22;27753;55.724;37.612;2023-07-16T14:42:34;23.30;65.70
42095;DHT22;27753;55.724;37.612;2023-07-16T14:44:59;23.20;65.90
42095;DHT22;27753;55.724;37.612;2023-07-16T14:47:25;23.10;66.00
42095;DHT22;27753;55.724;37.612;2023-07-16T14:49:51;23.10;66.00
42095;DHT22;27753;55.724;37.612;2023-07-16T14:52:17;23.10;65.90
42095;DHT22;27753;55.724;37.612;2023-07-16T14:54:43;23.50;66.20
42095;DHT22;27753;55.724;37.612;2023-07-16T14:57:08;24.50;65.40
42095;DHT22;27753;55.724;37.612;2023-07-16T14:59:34;25.30;64.00
42095;DHT22;27753;55.724;37.612;2023-07-16T15:02:02;25.90;63.20
42095;DHT22;27753;55.724;37.612;2023-07-16T15:04:28;26.00;62.20
42095;DHT22;27753;55.724;37.612;2023-07-16T15:06:54;26.30;62.20
42095;DHT22;27753;55.724;37.612;2023-07-16T15:09:21;26.70;61.90
42095;DHT22;27753;55.724;37.612;2023-07-16T15:11:47;26.70;59.50
42095;DHT22;27753;55.724;37.612;2023-07-16T15:14:14;26.30;59.00
42095;DHT22;27753;55.724;37.612;2023-07-16T15:16:39;25.90;59.30
42095;DHT22;27753;55.724;37.612;2023-07-16T15:19:05;25.40;60.00
42095;DHT22;27753;55.724;37.612;2023-07-16T15:21:31;25.10;60.30
42095;DHT22;27753;55.724;37.612;2023-07-16T15:23:59;24.90;60.40